Time;durP1;ratioP1;P1;durP2;ratioP2;P2;SDS_P1;SDS_P2;PMS_P1;PMS_P2;Temp;Humidity;BMP_temperature;BMP_pressure;BME280_temperature;BME280_humidity;BME280_pressure;Samples;Min_cycle;Max_cycle;Signal;HPM_P1;HPM_P2
2024/01/23 00:01:16;;;;;;;1.52;1.42;;;10.00;1.00;;;;;;5091875;27;20035;-88
2024/01/23 00:03:41;;;;;;;1.80;1.70;;;10.00;1.00;;;;;;5111406;27;20035;-87
2024/01/23 00:06:07;;;;;;;1.60;1.50;;;10.00;1.00;;;;;;5109557;27;20072;-89
2024/01/23 00:08:33;;;;;;;1.50;1.40;;;9.80;1.00;;;;;;5091507;27;20066;-87
2024/01/23 00:10:58;;;;;;;1.80;1.70;;;9.90;1.00;;;;;;5109725;27;20039;-88
2024/01/23 00:13:24;;;;;;;1.67;1.58;;;10.00;1.00;;;;;;5109039;27;20043;-88
2024/01/23 00:15:50;;;;;;;1.40;1.40;;;10.10;99.90;;;;;;5091125;27;20509;-89
2024/01/23 00:18:15;;;;;;;1.80;1.70;;;10.10;99.90;;;;;;5091644;27;20543;-89
2024/01/23 00:20:41;;;;;;;1.60;1.50;;;10.10;99.90;;;;;;5090495;28;20039;-88
2024/01/23 00:23:07;;;;;;;1.40;1.40;;;10.20;99.90;;;;;;5107191;27;20868;-88
2024/01/23 00:25:33;;;;;;;1.80;1.70;;;10.20;99.90;;;;;;5107279;28;20051;-87
2024/01/23 00:27:58;;;;;;;1.80;1.70;;;10.20;99.90;;;;;;5107729;28;20407;-89
2024/01/23 00:30:24;;;;;;;1.83;1.73;;;10.20;99.90;;;;;;5093005;27;20460;-91
2024/01/23 00:32:50;;;;;;;1.73;1.63;;;10.20;99.90;;;;;;5107879;28;20047;-88
2024/01/23 00:35:16;;;;;;;1.73;1.63;;;10.20;99.90;;;;;;5106751;28;20476;-87
2024/01/23 00:37:41;;;;;;;1.58;1.48;;;10.20;99.90;;;;;;5091078;28;20404;-90
2024/01/23 00:40:11;;;;;;;1.95;1.85;;;10.10;99.90;;;;;;5106792;28;20047;-88
2024/01/23 00:42:36;;;;;;;1.55;1.45;;;10.10;99.90;;;;;;5106092;28;20043;-88
2024/01/23 00:45:03;;;;;;;1.50;1.40;;;10.00;99.90;;;;;;5109076;27;21379;-87
2024/01/23 00:47:30;;;;;;;1.55;1.45;;;10.10;99.90;;;;;;5108680;28;20069;-87
2024/01/23 00:49:56;;;;;;;1.63;1.52;;;10.00;99.90;;;;;;5091156;28;20058;-88
2024/01/23 00:52:22;;;;;;;1.50;1.40;;;9.90;99.90;;;;;;5108453;28;20039;-89
2024/01/23 00:54:48;;;;;;;1.60;1.50;;;9.90;99.90;;;;;;5090365;27;20557;-86
2024/01/23 00:57:13;;;;;;;1.70;1.60;;;9.90;99.90;;;;;;5090885;27;20035;-87
2024/01/23 00:59:39;;;;;;;1.48;1.40;;;10.00;99.90;;;;;;5107140;28;20230;-88
2024/01/23 01:02:05;;;;;;;1.60;1.50;;;10.00;99.90;;;;;;5107860;28;20039;-87
2024/01/23 01:04:30;;;;;;;1.65;1.55;;;10.10;99.90;;;;;;5106079;28;20878;-89
2024/01/23 01:06:56;;;;;;;1.30;1.30;;;10.00;99.90;;;;;;5107830;28;20044;-87
2024/01/23 01:09:22;;;;;;;1.48;1.40;;;10.00;99.90;;;;;;5092839;28;20068;-88
2024/01/23 01:11:48;;;;;;;1.60;1.50;;;10.00;99.90;;;;;;5092111;28;20511;-88
2024/01/23 01:14:14;;;;;;;1.40;1.40;;;10.10;99.90;;;;;;5090901;28;20035;-90
2024/01/23 01:16:40;;;;;;;1.70;1.60;;;10.10;99.90;;;;;;5093499;28;20192;-88
2024/01/23 01:19:05;;;;;;;1.52;1.42;;;10.10;99.90;;;;;;5107065;28;20134;-88
2024/01/23 01:21:31;;;;;;;1.70;1.60;;;10.00;99.90;;;;;;5108438;28;20389;-87
2024/01/23 01:23:57;;;;;;;1.50;1.40;;;9.90;99.90;;;;;;5108772;27;20050;-88
2024/01/23 01:26:22;;;;;;;1.67;1.58;;;9.90;99.90;;;;;;5110818;28;20051;-89
2024/01/23 01:28:48;;;;;;;1.58;1.48;;;9.80;99.90;;;;;;5094280;27;20567;-87
2024/01/23 01:31:14;;;;;;;1.40;1.40;;;9.80;99.90;;;;;;5112352;27;20043;-93
2024/01/23 01:33:39;;;;;;;1.30;1.30;;;9.80;99.90;;;;;;5096503;27;20059;-89
2024/01/23 01:36:07;;;;;;;1.50;1.40;;;9.80;99.90;;;;;;5093803;27;20099;-91
2024/01/23 01:38:32;;;;;;;1.65;1.55;;;9.90;99.90;;;;;;5094732;27;20047;-87
2024/01/23 01:40:58;;;;;;;1.50;1.40;;;9.80;99.90;;;;;;5109868;27;20031;-88
2024/01/23 01:43:26;;;;;;;1.30;1.30;;;9.90;99.90;;;;;;5094933;27;20039;-89
2024/01/23 01:46:23;;;;;;;1.48;1.40;;;10.00;99.90;;;;;;5094325;27;20058;-89
2024/01/23 01:48:49;;;;;;;1.30;1.30;;;10.00;99.90;;;;;;5111899;27;20043;-91
2024/01/23 01:51:17;;;;;;;1.50;1.40;;;10.10;99.90;;;;;;5095688;27;20046;-90
2024/01/23 01:53:44;;;;;;;1.35;1.35;;;10.10;99.90;;;;;;5111623;27;20099;-89
2024/01/23 01:56:10;;;;;;;1.70;1.60;;;10.10;99.90;;;;;;5114220;27;20057;-89
2024/01/23 01:58:37;;;;;;;1.50;1.40;;;10.10;99.90;;;;;;5093268;27;20176;-89
2024/01/23 02:01:03;;;;;;;1.60;1.50;;;10.20;97.00;;;;;;5093580;27;20129;-87
2024/01/23 02:03:29;;;;;;;1.45;1.40;;;10.20;77.20;;;;;;5094143;27;20047;-88
2024/01/23 02:06:02;;;;;;;1.33;1.33;;;10.20;73.90;;;;;;5094174;27;20062;-89
2024/01/23 02:08:28;;;;;;;1.60;1.50;;;10.10;72.90;;;;;;5109105;27;20046;-87
2024/01/23 02:10:55;;;;;;;1.50;1.40;;;10.20;21.60;;;;;;5111331;27;20496;-89
2024/01/23 02:13:22;;;;;;;1.50;1.40;;;10.20;42.60;;;;;;5094882;27;20054;-88
2024/01/23 02:15:48;;;;;;;1.83;1.73;;;10.10;56.90;;;;;;5095026;27;20047;-90
2024/01/23 02:18:13;;;;;;;1.48;1.40;;;10.10;41.00;;;;;;5111481;27;20054;-89
2024/01/23 02:20:39;;;;;;;1.65;1.55;;;10.00;34.50;;;;;;5111151;27;20046;-88
2024/01/23 02:23:05;;;;;;;1.65;1.55;;;10.00;8.70;;;;;;5110836;27;20484;-91
2024/01/23 02:25:30;;;;;;;1.60;1.50;;;10.00;18.70;;;;;;5112895;27;20122;-89
2024/01/23 02:27:58;;;;;;;1.40;1.35;;;10.00;2.70;;;;;;5094925;27;20594;-88
2024/01/23 02:30:23;;;;;;;2.10;2.00;;;9.90;20.40;;;;;;5094108;27;20078;-89
2024/01/23 02:32:49;;;;;;;1.60;1.50;;;9.80;69.70;;;;;;5092824;27;20127;-89
2024/01/23 02:35:15;;;;;;;1.30;1.30;;;9.80;33.00;;;;;;5092686;27;20432;-87
2024/01/23 02:37:40;;;;;;;1.20;1.20;;;9.80;36.60;;;;;;5095583;27;20058;-88
2024/01/23 02:40:07;;;;;;;1.30;1.30;;;9.70;56.30;;;;;;5091710;27;20044;-90
2024/01/23 02:42:32;;;;;;;1.30;1.30;;;9.70;55.90;;;;;;5110090;27;20553;-88
2024/01/23 02:44:58;;;;;;;1.20;1.20;;;9.60;56.00;;;;;;5114639;27;20047;-90
2024/01/23 02:47:24;;;;;;;1.20;1.20;;;9.50;95.70;;;;;;5111450;27;20492;-89
2024/01/23 02:49:50;;;;;;;1.30;1.30;;;9.40;99.90;;;;;;5093221;27;20069;-89
2024/01/23 02:52:16;;;;;;;1.20;1.20;;;9.50;77.70;;;;;;5111943;27;20035;-88
2024/01/23 02:54:43;;;;;;;1.10;1.10;;;9.50;76.10;;;;;;5112498;27;20140;-87
2024/01/23 02:57:09;;;;;;;1.20;1.20;;;9.40;81.40;;;;;;5096094;27;20051;-87
2024/01/23 02:59:34;;;;;;;1.13;1.13;;;9.40;85.60;;;;;;5095059;27;20389;-91
2024/01/23 03:02:00;;;;;;;1.20;1.20;;;9.30;98.50;;;;;;5091534;27;20061;-88
2024/01/23 03:04:26;;;;;;;1.20;1.20;;;9.40;91.20;;;;;;5109371;27;20051;-89
2024/01/23 03:06:51;;;;;;;1.00;1.00;;;9.40;69.80;;;;;;5094206;27;20069;-89
2024/01/23 03:09:17;;;;;;;1.10;1.10;;;9.30;89.80;;;;;;5093169;27;20042;-90
2024/01/23 03:11:43;;;;;;;1.10;1.10;;;9.30;92.10;;;;;;5093790;27;20042;-90
2024/01/23 03:14:09;;;;;;;1.10;1.10;;;9.30;91.40;;;;;;5095200;27;20099;-89
2024/01/23 03:16:34;;;;;;;1.05;1.05;;;9.20;99.90;;;;;;5110741;27;20072;-91
2024/01/23 03:19:00;;;;;;;1.00;1.00;;;9.20;99.90;;;;;;5111829;27;20046;-90
2024/01/23 03:21:26;;;;;;;1.20;1.20;;;9.20;98.80;;;;;;5092454;27;20196;-89
2024/01/23 03:23:51;;;;;;;1.17;1.17;;;9.20;93.50;;;;;;5109291;27;20062;-89
2024/01/23 03:26:17;;;;;;;1.15;1.15;;;9.20;99.90;;;;;;5096524;27;20126;-89
2024/01/23 03:28:43;;;;;;;1.10;1.10;;;9.30;99.90;;;;;;5110160;27;20047;-87
2024/01/23 03:31:09;;;;;;;1.10;1.10;;;9.40;93.30;;;;;;5112121;27;20118;-89
2024/01/23 03:33:34;;;;;;;1.20;1.20;;;9.40;93.60;;;;;;5094039;27;20046;-87
2024/01/23 03:36:00;;;;;;;1.20;1.20;;;9.40;82.50;;;;;;5109043;27;20043;-89
2024/01/23 03:38:26;;;;;;;1.20;1.20;;;9.50;65.10;;;;;;5091258;27;20047;-89
2024/01/23 03:40:52;;;;;;;1.30;1.30;;;9.50;81.40;;;;;;5095049;27;20051;-88
2024/01/23 03:43:17;;;;;;;1.20;1.20;;;9.50;74.10;;;;;;5110085;27;20047;-88
2024/01/23 03:45:43;;;;;;;1.10;1.10;;;9.60;72.90;;;;;;5092303;27;20397;-87
2024/01/23 03:48:10;;;;;;;1.20;1.20;;;9.60;51.60;;;;;;5109409;27;20614;-90
2024/01/23 03:50:36;;;;;;;1.23;1.23;;;9.60;53.80;;;;;;5110006;27;20514;-90
2024/01/23 03:53:02;;;;;;;1.25;1.25;;;9.70;23.90;;;;;;5111370;27;20043;-91
2024/01/23 03:55:27;;;;;;;1.30;1.30;;;9.60;73.20;;;;;;5094905;27;20043;-88
2024/01/23 03:57:53;;;;;;;1.30;1.30;;;9.70;52.00;;;;;;5109662;27;20111;-91
2024/01/23 04:00:19;;;;;;;1.20;1.20;;;9.80;34.50;;;;;;5109110;27;20062;-89
2024/01/23 04:02:46;;;;;;;1.20;1.20;;;9.80;29.10;;;;;;5092251;27;20031;-91
2024/01/23 04:05:12;;;;;;;1.60;1.50;;;9.80;33.90;;;;;;5109361;27;20518;-88
2024/01/23 04:07:38;;;;;;;1.60;1.50;;;9.80;22.10;;;;;;5111473;27;20050;-88
2024/01/23 04:10:04;;;;;;;1.30;1.30;;;9.90;1.40;;;;;;5093694;28;20043;-87
2024/01/23 04:12:30;;;;;;;1.60;1.50;;;9.90;1.00;;;;;;5090617;27;20035;-88
2024/01/23 04:14:58;;;;;;;1.60;1.50;;;9.80;23.20;;;;;;5090974;27;20051;-91
2024/01/23 04:17:24;;;;;;;1.60;1.50;;;9.80;5.00;;;;;;5091259;27;20114;-89
2024/01/23 04:19:49;;;;;;;1.50;1.40;;;9.80;28.30;;;;;;5090678;27;20524;-88
2024/01/23 04:22:15;;;;;;;1.52;1.42;;;9.70;53.60;;;;;;5087747;28;20112;-89
2024/01/23 04:24:41;;;;;;;1.60;1.50;;;9.70;81.00;;;;;;5090206;28;20058;-89
2024/01/23 04:27:07;;;;;;;1.55;1.45;;;9.80;80.20;;;;;;5108876;28;20081;-88
2024/01/23 04:29:33;;;;;;;1.30;1.30;;;9.80;35.80;;;;;;5106925;28;20047;-88
2024/01/23 04:31:59;;;;;;;1.60;1.50;;;9.90;13.20;;;;;;5092943;27;20054;-89
2024/01/23 04:34:24;;;;;;;1.60;1.50;;;9.90;40.30;;;;;;5109967;28;20043;-91
2024/01/23 04:36:50;;;;;;;1.70;1.60;;;9.90;25.40;;;;;;5092254;28;20511;-88
2024/01/23 04:39:19;;;;;;;1.60;1.50;;;10.00;23.30;;;;;;5108324;28;20032;-88
2024/01/23 04:41:45;;;;;;;1.70;1.60;;;9.90;38.10;;;;;;5108609;28;20054;-89
2024/01/23 04:44:10;;;;;;;1.60;1.50;;;10.00;49.10;;;;;;5109075;28;20035;-89
2024/01/23 04:46:36;;;;;;;1.80;1.70;;;10.00;74.80;;;;;;5092540;27;20461;-89
2024/01/23 04:49:02;;;;;;;1.45;1.40;;;10.00;99.90;;;;;;5107556;27;20046;-89
2024/01/23 04:51:29;;;;;;;1.90;1.80;;;10.00;99.90;;;;;;5092375;28;20043;-89
2024/01/23 04:53:55;;;;;;;1.48;1.40;;;9.90;99.90;;;;;;5107455;28;20399;-90
2024/01/23 04:56:21;;;;;;;1.70;1.60;;;9.90;99.90;;;;;;5092584;27;20141;-88
2024/01/23 04:58:48;;;;;;;1.35;1.35;;;9.90;99.90;;;;;;5092058;28;20142;-89
2024/01/23 05:01:19;;;;;;;1.70;1.60;;;9.80;99.90;;;;;;5093615;28;20057;-88
2024/01/23 05:03:45;;;;;;;1.90;1.80;;;9.90;99.90;;;;;;5112608;27;20064;-88
2024/01/23 05:06:11;;;;;;;1.60;1.50;;;9.90;99.90;;;;;;5112225;27;20424;-87
2024/01/23 05:08:36;;;;;;;1.75;1.65;;;9.90;99.90;;;;;;5093263;27;20043;-89
2024/01/23 05:11:02;;;;;;;1.52;1.42;;;9.90;99.90;;;;;;5114546;27;20066;-90
2024/01/23 05:13:28;;;;;;;1.60;1.50;;;9.90;99.90;;;;;;5094638;27;20039;-90
2024/01/23 05:15:53;;;;;;;1.60;1.50;;;9.90;99.90;;;;;;5109291;27;20507;-87
2024/01/23 05:18:19;;;;;;;1.50;1.40;;;9.90;99.90;;;;;;5112620;27;20043;-88
2024/01/23 05:20:45;;;;;;;1.50;1.40;;;9.80;99.90;;;;;;5111790;27;20176;-92
2024/01/23 05:23:11;;;;;;;1.50;1.40;;;9.80;99.90;;;;;;5093201;27;20067;-89
2024/01/23 05:25:38;;;;;;;1.50;1.40;;;9.80;99.90;;;;;;5095437;27;20054;-87
2024/01/23 05:28:04;;;;;;;1.52;1.42;;;9.80;99.90;;;;;;5095951;27;20441;-89
2024/01/23 05:30:32;;;;;;;1.70;1.60;;;9.90;99.90;;;;;;5093871;27;20051;-90
2024/01/23 05:33:00;;;;;;;1.70;1.60;;;9.90;99.90;;;;;;5092502;27;20453;-87
2024/01/23 05:35:26;;;;;;;1.55;1.45;;;9.90;99.90;;;;;;5094679;27;20669;-88
2024/01/23 05:37:52;;;;;;;1.75;1.65;;;9.90;99.90;;;;;;5111457;27;20043;-89
2024/01/23 05:40:17;;;;;;;1.80;1.70;;;10.00;99.90;;;;;;5111574;27;20039;-88
2024/01/23 05:42:43;;;;;;;1.73;1.63;;;10.00;99.90;;;;;;5107900;27;20031;-86
2024/01/23 05:45:09;;;;;;;1.60;1.50;;;10.00;99.90;;;;;;5108732;27;20055;-87
2024/01/23 05:47:35;;;;;;;1.63;1.52;;;10.10;99.90;;;;;;5092502;27;20043;-88
2024/01/23 05:50:01;;;;;;;1.63;1.52;;;10.10;99.90;;;;;;5095520;27;20106;-86
2024/01/23 05:52:27;;;;;;;1.60;1.50;;;10.10;99.90;;;;;;5111068;27;20071;-87
2024/01/23 05:54:53;;;;;;;1.70;1.60;;;10.00;99.90;;;;;;5111581;27;20404;-87
2024/01/23 05:57:18;;;;;;;1.60;1.50;;;10.00;99.90;;;;;;5110736;27;20055;-89
2024/01/23 05:59:44;;;;;;;1.70;1.60;;;10.00;99.90;;;;;;5092288;27;20043;-86
2024/01/23 06:02:10;;;;;;;1.70;1.60;;;10.00;99.90;;;;;;5112616;27;20107;-87
2024/01/23 06:04:36;;;;;;;1.88;1.77;;;9.90;99.90;;;;;;5108876;27;20055;-89
2024/01/23 06:07:02;;;;;;;1.60;1.50;;;9.90;99.90;;;;;;5109662;27;20039;-88
2024/01/23 06:09:29;;;;;;;1.90;1.80;;;9.90;99.90;;;;;;5108419;27;20546;-90
2024/01/23 06:11:55;;;;;;;1.70;1.60;;;9.90;99.90;;;;;;5109019;27;20043;-88
2024/01/23 06:14:21;;;;;;;1.60;1.50;;;9.90;99.90;;;;;;5108391;27;20134;-88
2024/01/23 06:16:46;;;;;;;1.90;1.80;;;10.00;99.90;;;;;;5091607;27;20314;-88
2024/01/23 06:19:14;;;;;;;1.60;1.50;;;10.00;99.90;;;;;;5109064;27;20043;-88
2024/01/23 06:21:39;;;;;;;1.60;1.50;;;10.00;99.90;;;;;;5110121;27;20035;-89
2024/01/23 06:24:05;;;;;;;1.60;1.50;;;10.00;99.90;;;;;;5110643;27;20043;-88
2024/01/23 06:26:32;;;;;;;1.73;1.63;;;10.00;99.90;;;;;;5110808;27;20066;-88
2024/01/23 06:28:58;;;;;;;1.63;1.52;;;10.00;99.90;;;;;;5094116;27;20621;-88
2024/01/23 06:31:27;;;;;;;1.83;1.73;;;9.90;99.90;;;;;;5096600;27;20088;-88
2024/01/23 06:33:53;;;;;;;1.55;1.45;;;10.00;99.90;;;;;;5094054;27;20035;-88
2024/01/23 06:36:19;;;;;;;1.55;1.45;;;10.00;99.90;;;;;;5092454;27;20043;-88
2024/01/23 06:38:45;;;;;;;1.80;1.70;;;10.00;99.90;;;;;;5113096;27;20727;-88
2024/01/23 06:41:11;;;;;;;1.88;1.77;;;9.90;99.90;;;;;;5109806;27;20062;-86
2024/01/23 06:43:37;;;;;;;1.70;1.60;;;9.90;99.90;;;;;;5106919;27;20066;-88
2024/01/23 06:46:02;;;;;;;1.60;1.50;;;10.00;99.90;;;;;;5091232;27;20051;-88
2024/01/23 06:48:30;;;;;;;1.90;1.80;;;10.00;99.90;;;;;;5106162;27;20035;-88
2024/01/23 06:50:56;;;;;;;1.70;1.60;;;10.00;99.90;;;;;;5093043;27;20507;-87
2024/01/23 06:53:21;;;;;;;1.80;1.70;;;10.00;99.90;;;;;;5107784;27;20050;-88
2024/01/23 06:55:48;;;;;;;1.98;1.88;;;10.00;99.90;;;;;;5106953;27;20047;-88
2024/01/23 06:58:14;;;;;;;1.70;1.60;;;10.10;99.90;;;;;;5091099;27;20097;-88
2024/01/23 07:00:40;;;;;;;1.83;1.73;;;10.00;99.90;;;;;;5093087;27;20754;-88
2024/01/23 07:03:09;;;;;;;1.70;1.60;;;10.00;99.90;;;;;;5110960;27;20068;-88
2024/01/23 07:05:35;;;;;;;1.95;1.85;;;10.10;99.90;;;;;;5110662;27;20043;-88
2024/01/23 07:08:03;;;;;;;1.92;1.83;;;10.10;99.90;;;;;;5109855;27;20066;-89
2024/01/23 07:10:29;;;;;;;1.85;1.75;;;10.10;99.90;;;;;;5110553;27;20043;-89
2024/01/23 07:12:55;;;;;;;1.70;1.60;;;10.10;99.90;;;;;;5108393;27;20590;-88
2024/01/23 07:15:21;;;;;;;1.60;1.50;;;10.10;99.90;;;;;;5093757;27;20039;-88
2024/01/23 07:17:47;;;;;;;2.00;1.90;;;10.10;99.90;;;;;;5111737;27;20578;-90
2024/01/23 07:20:13;;;;;;;1.83;1.73;;;10.00;99.90;;;;;;5112499;27;20039;-87
2024/01/23 07:22:38;;;;;;;1.88;1.77;;;10.00;99.90;;;;;;5110013;27;20066;-90
2024/01/23 07:25:05;;;;;;;1.70;1.60;;;10.10;99.90;;;;;;5090995;27;20046;-89
2024/01/23 07:27:31;;;;;;;1.95;1.85;;;10.10;99.90;;;;;;5093096;27;20473;-90
2024/01/23 07:30:00;;;;;;;1.80;1.70;;;10.10;99.90;;;;;;5092100;27;20448;-93
2024/01/23 07:32:25;;;;;;;1.90;1.80;;;10.10;99.90;;;;;;5092183;27;20091;-89
2024/01/23 07:34:51;;;;;;;1.90;1.80;;;10.10;99.90;;;;;;5091770;27;20643;-87
2024/01/23 07:37:17;;;;;;;1.88;1.77;;;10.10;99.90;;;;;;5093444;27;20600;-88
2024/01/23 07:39:43;;;;;;;1.83;1.73;;;10.10;99.90;;;;;;5093438;27;20043;-92
2024/01/23 07:42:10;;;;;;;1.95;1.85;;;10.00;99.90;;;;;;5088419;27;20493;-87
2024/01/23 07:44:39;;;;;;;1.83;1.73;;;10.00;99.90;;;;;;5092212;27;20047;-89
2024/01/23 07:47:05;;;;;;;1.88;1.77;;;10.00;99.90;;;;;;5089511;27;20100;-88
2024/01/23 07:49:31;;;;;;;1.50;1.40;;;10.00;99.90;;;;;;5092873;27;20043;-87
2024/01/23 07:51:57;;;;;;;1.60;1.50;;;10.00;99.90;;;;;;5108543;27;20672;-87
2024/01/23 07:54:23;;;;;;;1.70;1.60;;;10.00;99.90;;;;;;5107973;27;20054;-89
2024/01/23 07:56:52;;;;;;;1.60;1.50;;;10.00;99.90;;;;;;5111847;27;20050;-88
2024/01/23 07:59:18;;;;;;;1.80;1.70;;;10.00;99.90;;;;;;5095613;27;20039;-89
2024/01/23 08:01:44;;;;;;;1.63;1.52;;;9.90;99.90;;;;;;5109627;27;20039;-88
2024/01/23 08:04:12;;;;;;;1.55;1.45;;;9.80;99.90;;;;;;5091119;27;20072;-88
2024/01/23 08:06:38;;;;;;;1.65;1.55;;;9.80;99.90;;;;;;5089322;27;20043;-88
2024/01/23 08:09:07;;;;;;;1.55;1.45;;;9.80;99.90;;;;;;5091416;27;20050;-87
2024/01/23 08:11:33;;;;;;;1.60;1.50;;;9.70;99.90;;;;;;5107649;27;20047;-88
2024/01/23 08:13:59;;;;;;;1.73;1.63;;;9.70;99.90;;;;;;5092399;27;20072;-88
2024/01/23 08:16:27;;;;;;;1.33;1.33;;;9.60;99.90;;;;;;5106273;27;20135;-88
2024/01/23 08:18:54;;;;;;;1.50;1.40;;;9.70;99.90;;;;;;5107772;27;20047;-89
2024/01/23 08:21:20;;;;;;;1.50;1.40;;;9.70;99.90;;;;;;5111701;27;20130;-89
2024/01/23 08:23:46;;;;;;;1.50;1.40;;;9.70;99.90;;;;;;5110854;28;20075;-88
2024/01/23 08:26:13;;;;;;;1.50;1.40;;;9.70;99.90;;;;;;5113202;28;20071;-88
2024/01/23 08:28:42;;;;;;;1.80;1.70;;;9.70;99.90;;;;;;5089661;28;20043;-88
2024/01/23 08:31:08;;;;;;;1.70;1.60;;;9.70;99.90;;;;;;5093524;28;20035;-88
2024/01/23 08:33:34;;;;;;;1.50;1.40;;;9.70;99.90;;;;;;5110127;28;20435;-89
2024/01/23 08:36:03;;;;;;;1.70;1.60;;;9.70;99.90;;;;;;5094526;28;20083;-92
2024/01/23 08:38:29;;;;;;;1.48;1.40;;;9.70;99.90;;;;;;5111385;27;20062;-88
2024/01/23 08:40:55;;;;;;;1.60;1.50;;;9.70;99.90;;;;;;5115249;27;20053;-87
2024/01/23 08:43:21;;;;;;;1.70;1.60;;;9.70;99.90;;;;;;5098349;27;20047;-89
2024/01/23 08:45:47;;;;;;;1.60;1.50;;;9.70;99.90;;;;;;5114879;27;20118;-89
2024/01/23 08:48:13;;;;;;;1.77;1.67;;;9.70;99.90;;;;;;5097905;27;20111;-88
2024/01/23 08:50:40;;;;;;;1.63;1.52;;;9.80;99.90;;;;;;5099107;27;20703;-88
2024/01/23 08:53:05;;;;;;;1.50;1.40;;;9.90;99.90;;;;;;5093272;27;20141;-87
2024/01/23 08:55:31;;;;;;;1.65;1.55;;;9.90;99.90;;;;;;5114953;27;20172;-89
2024/01/23 08:57:57;;;;;;;1.67;1.58;;;9.90;99.90;;;;;;5098376;27;20039;-89
2024/01/23 09:00:22;;;;;;;1.95;1.85;;;9.90;99.90;;;;;;5112915;27;20047;-89
2024/01/23 09:02:48;;;;;;;1.80;1.70;;;10.00;99.90;;;;;;5107671;27;20062;-88
2024/01/23 09:05:14;;;;;;;1.90;1.80;;;10.10;99.90;;;;;;5110286;27;20039;-88
2024/01/23 09:07:40;;;;;;;1.70;1.60;;;10.10;99.90;;;;;;5112497;27;20043;-89
2024/01/23 09:10:06;;;;;;;2.08;1.98;;;10.20;99.90;;;;;;5114839;27;20050;-87
2024/01/23 09:12:33;;;;;;;1.90;1.80;;;10.20;99.90;;;;;;5095256;27;20099;-87
2024/01/23 09:14:59;;;;;;;2.03;1.92;;;10.20;99.90;;;;;;5113506;27;20076;-88
2024/01/23 09:17:25;;;;;;;1.70;1.60;;;10.20;99.90;;;;;;5116204;27;20128;-89
2024/01/23 09:19:52;;;;;;;1.75;1.65;;;10.30;99.90;;;;;;5096673;27;20067;-89
2024/01/23 09:22:18;;;;;;;1.85;1.75;;;10.30;99.90;;;;;;5112864;27;20125;-90
2024/01/23 09:24:44;;;;;;;2.05;1.95;;;10.40;99.90;;;;;;5115983;27;20381;-93
2024/01/23 09:27:10;;;;;;;1.73;1.63;;;10.40;99.90;;;;;;5098284;27;20042;-91
2024/01/23 09:29:37;;;;;;;2.17;2.08;;;10.40;99.90;;;;;;5097399;27;20555;-88
2024/01/23 09:32:06;;;;;;;1.77;1.67;;;10.50;99.90;;;;;;5097539;27;20042;-87
2024/01/23 09:34:32;;;;;;;2.13;2.03;;;10.50;99.90;;;;;;5096350;27;20047;-91
2024/01/23 09:36:58;;;;;;;1.70;1.60;;;10.50;99.90;;;;;;5100092;27;20126;-90
2024/01/23 09:39:23;;;;;;;1.67;1.58;;;10.60;99.90;;;;;;5114905;27;20133;-89
2024/01/23 09:41:58;;;;;;;1.70;1.60;;;10.60;99.90;;;;;;5115012;27;20058;-90
2024/01/23 09:44:24;;;;;;;1.92;1.83;;;10.60;99.90;;;;;;5098333;27;20047;-92
2024/01/23 09:46:51;;;;;;;1.98;1.88;;;10.70;99.90;;;;;;5097753;27;20547;-90
2024/01/23 09:49:18;;;;;;;1.70;1.60;;;10.70;99.90;;;;;;5113260;27;20047;-90
2024/01/23 09:51:47;;;;;;;1.73;1.63;;;10.80;99.90;;;;;;5112344;27;20038;-90
2024/01/23 09:54:14;;;;;;;2.00;1.90;;;10.80;99.90;;;;;;5096592;27;20549;-89
2024/01/23 09:56:40;;;;;;;2.50;2.40;;;10.80;99.90;;;;;;5117225;27;20510;-90
2024/01/23 09:59:08;;;;;;;2.08;1.98;;;10.90;99.90;;;;;;5096568;27;20035;-92
2024/01/23 10:01:34;;;;;;;2.72;2.58;;;10.90;96.30;;;;;;5098356;27;20043;-91
2024/01/23 10:04:04;;;;;;;1.90;1.80;;;11.00;99.90;;;;;;5095386;27;20047;-90
2024/01/23 10:06:33;;;;;;;2.33;2.22;;;11.00;68.80;;;;;;5096349;27;20078;-90
2024/01/23 10:08:59;;;;;;;2.53;2.42;;;11.10;64.90;;;;;;5096014;27;20104;-89
2024/01/23 10:11:32;;;;;;;2.10;2.00;;;11.00;32.80;;;;;;5093977;27;20496;-88
2024/01/23 10:14:01;;;;;;;3.05;2.85;;;10.90;35.60;;;;;;5114963;27;20043;-90
2024/01/23 10:16:26;;;;;;;2.53;2.42;;;10.90;35.90;;;;;;5096477;27;20043;-90
2024/01/23 10:18:52;;;;;;;2.25;2.15;;;11.10;84.90;;;;;;5093778;27;20039;-90
2024/01/23 10:21:22;;;;;;;2.78;2.67;;;11.20;30.40;;;;;;5112647;27;20035;-90
2024/01/23 10:23:52;;;;;;;2.47;2.38;;;11.10;1.10;;;;;;5097012;27;20047;-90
2024/01/23 10:26:19;;;;;;;3.00;2.80;;;11.20;13.20;;;;;;5111625;27;20044;-89
2024/01/23 10:28:46;;;;;;;3.05;2.85;;;11.20;1.00;;;;;;5114029;27;20086;-88
2024/01/23 10:31:12;;;;;;;2.60;2.50;;;11.20;1.00;;;;;;5114412;27;20043;-90
2024/01/23 10:33:40;;;;;;;3.22;3.03;;;11.10;3.50;;;;;;5112471;27;20488;-91
2024/01/23 10:36:08;;;;;;;3.40;3.20;;;11.20;49.90;;;;;;5112000;27;20062;-90
2024/01/23 10:38:35;;;;;;;2.80;2.70;;;11.10;22.70;;;;;;5096170;27;20089;-89
2024/01/23 10:41:04;;;;;;;3.28;3.08;;;11.10;20.60;;;;;;5095956;27;20057;-92
2024/01/23 10:43:31;;;;;;;2.70;2.60;;;11.00;19.20;;;;;;5109862;27;20122;-89
2024/01/23 10:46:04;;;;;;;3.33;3.13;;;11.10;34.10;;;;;;5095631;27;20053;-90
2024/01/23 10:48:33;;;;;;;3.95;3.75;;;11.00;52.40;;;;;;5112925;27;20112;-89
2024/01/23 10:51:15;;;;;;;2.70;2.60;;;11.00;58.70;;;;;;5095919;27;20115;-89
2024/01/23 10:53:48;;;;;;;2.75;2.65;;;11.20;90.70;;;;;;5095046;27;20515;-91
2024/01/23 10:56:15;;;;;;;3.78;3.58;;;11.20;17.10;;;;;;5113674;27;20039;-90
2024/01/23 10:58:43;;;;;;;3.25;3.05;;;11.40;41.00;;;;;;5113482;27;20047;-89
2024/01/23 11:01:11;;;;;;;3.58;3.38;;;11.20;1.00;;;;;;5110921;27;20847;-88
2024/01/23 11:03:38;;;;;;;2.65;2.55;;;11.10;13.40;;;;;;5111047;27;20050;-89
2024/01/23 11:06:28;;;;;;;3.20;3.00;;;11.10;38.60;;;;;;5093569;27;20043;-90
2024/01/23 11:09:04;;;;;;;4.22;3.97;;;11.40;70.80;;;;;;5111013;27;20487;-89
2024/01/23 11:11:40;;;;;;;2.63;2.53;;;11.50;30.20;;;;;;5114663;27;20042;-90
2024/01/23 11:14:29;;;;;;;2.95;2.75;;;11.50;12.70;;;;;;5095530;27;20039;-90
2024/01/23 11:17:03;;;;;;;3.13;2.92;;;11.50;9.30;;;;;;5106232;27;20698;-88
2024/01/23 11:19:39;;;;;;;;;;;11.50;1.00;;;;;;5093648;27;20054;-89
2024/01/23 11:22:04;;;;;;;3.00;2.80;;;11.70;1.00;;;;;;5096047;27;19919;-90
2024/01/23 11:24:45;;;;;;;3.03;2.83;;;11.60;1.00;;;;;;5095996;27;20377;-89
2024/01/23 11:27:32;;;;;;;3.10;2.90;;;11.70;1.00;;;;;;5112247;27;20125;-89
2024/01/23 11:29:59;;;;;;;3.45;3.25;;;11.90;1.00;;;;;;5109362;27;20039;-91
2024/01/23 11:32:28;;;;;;;3.20;3.00;;;12.00;1.00;;;;;;5092922;27;20039;-89
2024/01/23 11:35:11;;;;;;;3.40;3.20;;;12.20;1.00;;;;;;5109517;27;20035;-90
2024/01/23 11:37:53;;;;;;;5.45;5.15;;;12.20;1.00;;;;;;5094488;27;20799;-89
2024/01/23 11:40:25;;;;;;;4.03;3.83;;;12.20;1.00;;;;;;5112770;27;20181;-89
2024/01/23 11:42:51;;;;;;;3.40;3.20;;;12.20;1.00;;;;;;5110445;27;20143;-90
2024/01/23 11:45:28;;;;;;;4.45;4.25;;;12.30;1.00;;;;;;5093866;27;20126;-89
2024/01/23 11:47:59;;;;;;;6.22;5.88;;;12.50;1.00;;;;;;5094342;27;20096;-88
2024/01/23 11:50:27;;;;;;;4.32;4.13;;;12.40;1.00;;;;;;5091408;27;20050;-92
2024/01/23 11:52:54;;;;;;;4.32;4.13;;;12.10;1.00;;;;;;5093805;27;20182;-90
2024/01/23 11:55:21;;;;;;;4.07;3.88;;;12.10;1.00;;;;;;5111185;27;20099;-89
2024/01/23 11:57:51;;;;;;;4.32;4.13;;;12.10;1.00;;;;;;5111812;27;20046;-90
2024/01/23 12:00:18;;;;;;;3.28;3.10;;;12.00;1.00;;;;;;5098448;27;20043;-90
2024/01/23 12:02:47;;;;;;;4.63;4.40;;;11.90;1.00;;;;;;5110306;27;20039;-89
2024/01/23 12:05:13;;;;;;;3.35;3.15;;;11.90;1.00;;;;;;5110145;27;20039;-90
2024/01/23 12:07:51;;;;;;;3.67;3.47;;;11.80;1.00;;;;;;5092677;27;20039;-88
2024/01/23 12:10:19;;;;;;;3.13;2.92;;;11.90;1.00;;;;;;5094473;27;20039;-87
2024/01/23 12:12:45;;;;;;;3.63;3.42;;;11.90;1.00;;;;;;5110203;27;20039;-90
2024/01/23 12:15:10;;;;;;;2.90;2.80;;;11.80;1.00;;;;;;5112798;28;20081;-87
2024/01/23 12:17:44;;;;;;;4.05;3.85;;;11.80;1.00;;;;;;5094392;27;20404;-92
2024/01/23 12:20:10;;;;;;;3.65;3.45;;;11.70;1.00;;;;;;5110559;27;20032;-89
2024/01/23 12:22:37;;;;;;;3.38;3.17;;;11.80;1.00;;;;;;5093461;27;20043;-89
2024/01/23 12:25:04;;;;;;;2.70;2.60;;;11.90;1.00;;;;;;5094333;28;20031;-91
2024/01/23 12:27:33;;;;;;;4.25;4.05;;;12.00;1.00;;;;;;5095386;28;20695;-92
2024/01/23 12:30:00;;;;;;;2.85;2.75;;;12.10;1.00;;;;;;5112212;28;20326;-92
2024/01/23 12:32:27;;;;;;;2.80;2.70;;;12.00;1.00;;;;;;5111372;28;20039;-90
2024/01/23 12:34:53;;;;;;;3.85;3.65;;;12.20;1.00;;;;;;5091854;28;20084;-90
2024/01/23 12:37:23;;;;;;;3.85;3.65;;;12.20;1.00;;;;;;5093460;28;20098;-89
2024/01/23 12:39:49;;;;;;;3.22;3.10;;;12.40;1.00;;;;;;5093497;28;20097;-89
2024/01/23 12:42:14;;;;;;;4.30;4.10;;;12.40;1.00;;;;;;5112481;28;20774;-90
2024/01/23 12:44:41;;;;;;;3.30;3.10;;;12.40;1.00;;;;;;5094976;27;20043;-89
2024/01/23 12:47:12;;;;;;;3.83;3.63;;;12.60;1.00;;;;;;5111663;28;20043;-88
2024/01/23 12:49:38;;;;;;;5.40;5.10;;;12.60;1.00;;;;;;5091502;27;20039;-91
2024/01/23 12:52:14;;;;;;;5.13;4.82;;;12.80;1.00;;;;;;5093844;28;20095;-90